Time;durP1;ratioP1;P1;durP2;ratioP2;P2;SDS_P1;SDS_P2;PMS_P1;PMS_P2;Temp;Humidity;BMP_temperature;BMP_pressure;BME280_temperature;BME280_humidity;BME280_pressure;Samples;Min_cycle;Max_cycle;Signal;HPM_P1;HPM_P2
2023/05/08 00:01:07;;;;;;;14.35;7.75;;;14.00;99.90;;;;;;5085530;28;20115;-67
2023/05/08 00:03:33;;;;;;;12.48;7.47;;;13.90;99.90;;;;;;5087782;28;20028;-65
2023/05/08 00:06:03;;;;;;;12.43;7.88;;;13.90;99.90;;;;;;5086388;28;20027;-66
2023/05/08 00:08:28;;;;;;;13.63;8.20;;;14.00;99.90;;;;;;5089288;28;20076;-65
2023/05/08 00:10:54;;;;;;;15.20;8.30;;;13.90;99.90;;;;;;5082742;28;20028;-68
2023/05/08 00:13:20;;;;;;;14.20;8.57;;;14.00;99.90;;;;;;5088859;28;20024;-65
2023/05/08 00:15:45;;;;;;;15.98;8.68;;;14.00;99.90;;;;;;5090643;28;20489;-65
2023/05/08 00:18:11;;;;;;;13.70;8.73;;;13.90;99.90;;;;;;5086958;28;20104;-63
2023/05/08 00:20:37;;;;;;;14.43;8.73;;;13.90;99.90;;;;;;5090385;28;20070;-64
2023/05/08 00:23:03;;;;;;;16.05;9.00;;;13.80;99.90;;;;;;5083343;28;20038;-66
2023/05/08 00:25:30;;;;;;;20.02;9.07;;;13.80;99.90;;;;;;5092341;28;20088;-65
2023/05/08 00:27:56;;;;;;;14.88;9.07;;;13.80;99.90;;;;;;5090410;28;20031;-69
2023/05/08 00:30:22;;;;;;;13.98;8.43;;;13.80;99.90;;;;;;5087955;28;20027;-64
2023/05/08 00:32:47;;;;;;;15.65;9.40;;;13.80;99.90;;;;;;5092050;28;20032;-65
2023/05/08 00:35:13;;;;;;;15.32;9.25;;;13.80;99.90;;;;;;5079558;28;20036;-64
2023/05/08 00:37:40;;;;;;;14.80;8.77;;;13.90;99.90;;;;;;5089294;28;20077;-64
2023/05/08 00:40:09;;;;;;;14.68;9.00;;;13.80;99.90;;;;;;5089182;28;20031;-65
2023/05/08 00:42:35;;;;;;;14.43;8.80;;;13.90;99.90;;;;;;5089243;28;20032;-65
2023/05/08 00:45:02;;;;;;;16.45;9.30;;;13.90;99.90;;;;;;5088007;28;20042;-64
2023/05/08 00:47:28;;;;;;;12.88;8.73;;;13.80;99.90;;;;;;5093754;28;20035;-65
2023/05/08 00:49:54;;;;;;;14.25;9.20;;;13.80;99.90;;;;;;5087232;28;20036;-68
2023/05/08 00:52:20;;;;;;;14.25;9.10;;;13.80;99.90;;;;;;5077408;28;20067;-64
2023/05/08 00:54:46;;;;;;;13.88;9.25;;;13.80;99.90;;;;;;5095211;28;20132;-64
2023/05/08 00:57:14;;;;;;;18.38;9.02;;;13.80;99.90;;;;;;5088630;28;20075;-65
2023/05/08 00:59:40;;;;;;;16.65;9.38;;;13.80;99.90;;;;;;5087729;28;20496;-65
2023/05/08 01:02:07;;;;;;;13.57;8.65;;;13.70;99.90;;;;;;5090387;28;20042;-64
2023/05/08 01:04:36;;;;;;;17.40;9.55;;;13.70;99.90;;;;;;5088900;28;20066;-64
2023/05/08 01:07:02;;;;;;;16.75;9.98;;;13.80;99.90;;;;;;5089828;28;20055;-67
2023/05/08 01:09:28;;;;;;;19.30;10.15;;;13.80;99.90;;;;;;5085449;28;20410;-65
2023/05/08 01:12:21;;;;;;;17.63;9.90;;;13.80;99.90;;;;;;5091155;28;20032;-69
2023/05/08 01:14:55;;;;;;;16.40;9.90;;;13.70;99.90;;;;;;5085071;28;20488;-65
2023/05/08 01:17:35;;;;;;;17.10;10.82;;;13.70;99.90;;;;;;5085208;28;20040;-64
2023/05/08 01:20:28;;;;;;;19.23;10.50;;;13.60;99.90;;;;;;5083020;28;20024;-65
2023/05/08 01:23:26;;;;;;;16.50;10.13;;;13.70;99.90;;;;;;5089061;28;20024;-68
2023/05/08 01:26:00;;;;;;;17.67;10.32;;;13.70;99.90;;;;;;5089943;28;20079;-64
2023/05/08 01:28:52;;;;;;;19.00;11.25;;;13.70;99.90;;;;;;5090467;28;20020;-65
2023/05/08 01:31:31;;;;;;;18.42;11.05;;;13.70;99.90;;;;;;5091636;28;20031;-64
2023/05/08 01:34:07;;;;;;;17.63;11.13;;;13.70;99.90;;;;;;5091555;28;20078;-68
2023/05/08 01:36:36;;;;;;;57.65;10.65;;;13.80;99.90;;;;;;5094844;28;20035;-63
2023/05/08 01:39:43;;;;;;;15.90;9.55;;;13.80;99.90;;;;;;5091232;28;20178;-66
2023/05/08 01:42:17;;;;;;;20.05;10.20;;;13.80;99.90;;;;;;5087207;28;20114;-65
2023/05/08 01:44:52;;;;;;;18.73;10.30;;;13.70;99.90;;;;;;5094722;28;20498;-64
2023/05/08 01:47:22;;;;;;;16.45;10.07;;;13.70;99.90;;;;;;5089493;28;20048;-64
2023/05/08 01:49:57;;;;;;;19.25;10.68;;;13.70;99.90;;;;;;5096286;28;20074;-63
2023/05/08 01:52:34;;;;;;;19.33;10.02;;;13.70;99.90;;;;;;5088681;28;20090;-64
2023/05/08 01:55:07;;;;;;;18.95;10.48;;;13.70;99.90;;;;;;5092612;28;20088;-68
2023/05/08 01:57:38;;;;;;;19.45;10.75;;;13.80;99.90;;;;;;5076283;28;20030;-64
2023/05/08 02:00:06;;;;;;;19.65;12.05;;;13.80;99.90;;;;;;5080592;28;20038;-64
2023/05/08 02:02:34;;;;;;;16.10;10.75;;;13.80;99.90;;;;;;5092114;28;20123;-64
2023/05/08 02:05:03;;;;;;;18.88;11.18;;;13.80;99.90;;;;;;5089868;28;20105;-68
2023/05/08 02:07:30;;;;;;;21.85;11.23;;;13.80;99.90;;;;;;5090774;28;20047;-65
2023/05/08 02:09:58;;;;;;;17.83;10.50;;;13.80;99.90;;;;;;5085138;28;20032;-66
2023/05/08 02:12:25;;;;;;;21.83;10.88;;;13.80;99.90;;;;;;5082438;28;20019;-63
2023/05/08 02:14:53;;;;;;;17.75;11.10;;;13.80;99.90;;;;;;5097363;28;20043;-65
2023/05/08 02:17:19;;;;;;;17.08;10.57;;;13.80;99.90;;;;;;5073084;28;20166;-64
2023/05/08 02:19:46;;;;;;;18.67;10.48;;;13.90;99.90;;;;;;5091438;28;20155;-65
2023/05/08 02:22:14;;;;;;;18.15;11.18;;;13.80;99.90;;;;;;5088526;28;20024;-63
2023/05/08 02:24:41;;;;;;;23.73;13.95;;;13.80;99.90;;;;;;5093020;28;20796;-64
2023/05/08 02:27:09;;;;;;;19.92;11.40;;;13.80;99.90;;;;;;5088273;28;20480;-64
2023/05/08 02:29:36;;;;;;;20.65;12.48;;;13.80;99.90;;;;;;5092179;28;20038;-64
2023/05/08 02:32:03;;;;;;;24.60;11.15;;;13.80;99.90;;;;;;5085628;28;20127;-68
2023/05/08 02:34:30;;;;;;;19.75;11.40;;;13.80;99.90;;;;;;5096121;28;20494;-66
2023/05/08 02:36:57;;;;;;;23.38;12.00;;;13.70;99.90;;;;;;5102538;28;20038;-64
2023/05/08 02:39:27;;;;;;;19.45;11.18;;;13.60;99.90;;;;;;5101507;28;20036;-65
2023/05/08 02:41:53;;;;;;;18.92;11.25;;;13.60;99.90;;;;;;5109566;28;20044;-63
2023/05/08 02:44:19;;;;;;;24.58;11.02;;;13.60;99.90;;;;;;5080465;28;20122;-63
2023/05/08 02:47:12;;;;;;;18.85;11.18;;;13.60;99.90;;;;;;5094574;28;20071;-65
2023/05/08 02:49:49;;;;;;;21.75;11.80;;;13.60;99.90;;;;;;5085933;28;20031;-64
2023/05/08 02:52:27;;;;;;;21.13;13.20;;;13.60;99.90;;;;;;5083459;28;20028;-65
2023/05/08 02:55:04;;;;;;;21.92;12.70;;;13.60;99.90;;;;;;5086452;28;20059;-66
2023/05/08 02:57:36;;;;;;;21.90;13.32;;;13.70;99.90;;;;;;5079922;28;20833;-64
2023/05/08 03:00:25;;;;;;;21.70;13.88;;;13.70;99.90;;;;;;5090923;28;20032;-69
2023/05/08 03:03:22;;;;;;;22.33;13.55;;;13.70;99.90;;;;;;5074942;28;20034;-64
2023/05/08 03:05:54;;;;;;;21.38;11.63;;;13.60;99.90;;;;;;5088433;28;20492;-65
2023/05/08 03:08:29;;;;;;;21.73;12.35;;;13.60;99.90;;;;;;5087764;28;20118;-65
2023/05/08 03:11:00;;;;;;;22.23;11.85;;;13.60;99.90;;;;;;5091327;28;20146;-66
2023/05/08 03:13:30;;;;;;;22.25;12.90;;;13.50;99.90;;;;;;5092303;28;20102;-64
2023/05/08 03:15:59;;;;;;;20.27;12.32;;;13.50;99.90;;;;;;5094883;28;20039;-64
2023/05/08 03:18:33;;;;;;;20.55;11.85;;;13.60;99.90;;;;;;5090339;28;20028;-66
2023/05/08 03:21:00;;;;;;;20.55;12.40;;;13.50;99.90;;;;;;5092281;28;20583;-66
2023/05/08 03:23:28;;;;;;;20.00;12.43;;;13.50;99.90;;;;;;5095287;28;20102;-65
2023/05/08 03:25:56;;;;;;;19.20;11.70;;;13.50;99.90;;;;;;5089889;28;20142;-64
2023/05/08 03:28:23;;;;;;;23.05;12.93;;;13.50;99.90;;;;;;5090868;28;20024;-67
2023/05/08 03:30:51;;;;;;;22.27;12.63;;;13.50;99.90;;;;;;5087783;28;20208;-64
2023/05/08 03:33:20;;;;;;;20.20;12.02;;;13.40;99.90;;;;;;5091807;28;20027;-65
2023/05/08 03:35:48;;;;;;;21.27;12.57;;;13.40;99.90;;;;;;5080673;28;20519;-65
2023/05/08 03:38:14;;;;;;;22.48;13.35;;;13.40;99.90;;;;;;5092571;28;20115;-65
2023/05/08 03:40:43;;;;;;;22.83;12.15;;;13.40;99.90;;;;;;5087602;28;20028;-65
2023/05/08 03:43:10;;;;;;;22.63;12.82;;;13.40;99.90;;;;;;5092769;28;20027;-65
2023/05/08 03:45:37;;;;;;;21.10;12.32;;;13.40;99.90;;;;;;5089979;28;20036;-66
2023/05/08 03:48:04;;;;;;;24.77;13.18;;;13.40;99.90;;;;;;5079914;28;20028;-68
2023/05/08 03:50:30;;;;;;;23.60;13.68;;;13.50;99.90;;;;;;5089378;28;20028;-65
2023/05/08 03:52:57;;;;;;;24.83;14.48;;;13.50;99.90;;;;;;5084291;28;20028;-64
2023/05/08 03:55:23;;;;;;;22.38;13.13;;;13.40;99.90;;;;;;5086884;28;20660;-66
2023/05/08 03:57:53;;;;;;;22.58;13.32;;;13.40;99.90;;;;;;5093163;28;20081;-66
2023/05/08 04:00:35;;;;;;;23.90;14.98;;;13.50;99.90;;;;;;5088700;28;20102;-64
2023/05/08 04:03:26;;;;;;;24.35;13.43;;;13.50;99.90;;;;;;5088296;28;20504;-65
2023/05/08 04:06:10;;;;;;;;;;;13.50;99.90;;;;;;5090129;28;20444;-65
2023/05/08 04:08:43;;;;;;;25.55;13.65;;;13.50;99.90;;;;;;5086621;28;20314;-67
2023/05/08 04:11:24;;;;;;;24.80;13.82;;;13.40;99.90;;;;;;5093311;28;20055;-66
2023/05/08 04:13:56;;;;;;;25.20;14.88;;;13.40;99.90;;;;;;5080377;28;20020;-64
2023/05/08 04:16:28;;;;;;;26.25;14.27;;;13.40;99.90;;;;;;5100555;28;20058;-65
2023/05/08 04:19:00;;;;;;;27.63;14.65;;;13.40;99.90;;;;;;5086418;28;20082;-66
2023/05/08 04:21:27;;;;;;;24.60;14.20;;;13.40;99.90;;;;;;5086675;28;20597;-65
2023/05/08 04:23:55;;;;;;;26.48;14.27;;;13.40;99.90;;;;;;5086674;28;20032;-66
2023/05/08 04:26:21;;;;;;;27.58;15.00;;;13.40;99.90;;;;;;5088907;28;20090;-64
2023/05/08 04:28:47;;;;;;;27.10;14.63;;;13.50;99.90;;;;;;5087106;28;20032;-64
2023/05/08 04:31:15;;;;;;;30.45;15.98;;;13.40;99.90;;;;;;5076194;28;20027;-65
2023/05/08 04:33:43;;;;;;;27.42;15.85;;;13.40;99.90;;;;;;5086465;28;20055;-66
2023/05/08 04:36:12;;;;;;;27.02;15.48;;;13.50;99.90;;;;;;5087295;28;20794;-68
2023/05/08 04:38:41;;;;;;;28.33;15.32;;;13.50;99.90;;;;;;5087921;28;20532;-65
2023/05/08 04:41:07;;;;;;;26.75;15.48;;;13.50;99.90;;;;;;5080236;28;20374;-67
2023/05/08 04:43:34;;;;;;;29.27;15.98;;;13.50;99.90;;;;;;5090871;28;20107;-64
2023/05/08 04:46:00;;;;;;;27.75;15.73;;;13.40;99.90;;;;;;5086657;28;20028;-65
2023/05/08 04:48:26;;;;;;;30.42;15.50;;;13.50;99.90;;;;;;5086604;28;20035;-64
2023/05/08 04:50:51;;;;;;;31.70;15.50;;;13.40;99.90;;;;;;5086622;28;20023;-64
2023/05/08 04:53:17;;;;;;;28.20;16.27;;;13.40;99.90;;;;;;5089563;28;20046;-64
2023/05/08 04:55:43;;;;;;;33.40;16.52;;;13.40;99.90;;;;;;5083948;28;20109;-65
2023/05/08 04:58:09;;;;;;;27.33;15.45;;;13.40;99.90;;;;;;5079871;28;20032;-68
2023/05/08 05:00:35;;;;;;;30.23;16.10;;;13.40;99.90;;;;;;5085561;28;20031;-67
2023/05/08 05:03:01;;;;;;;30.58;16.05;;;13.40;99.90;;;;;;5087809;28;20381;-66
2023/05/08 05:05:26;;;;;;;28.17;15.07;;;13.30;99.90;;;;;;5081890;28;20032;-66
2023/05/08 05:07:52;;;;;;;34.55;16.25;;;13.40;99.90;;;;;;5075640;28;20084;-66
2023/05/08 05:10:18;;;;;;;35.22;16.48;;;13.40;99.90;;;;;;5082139;28;20393;-67
2023/05/08 05:12:43;;;;;;;30.27;16.02;;;13.40;99.90;;;;;;5086396;28;20043;-65
2023/05/08 05:15:10;;;;;;;28.83;16.27;;;13.30;99.90;;;;;;5092552;28;20015;-69
2023/05/08 05:17:35;;;;;;;31.60;17.13;;;13.40;99.90;;;;;;5087549;28;20039;-66
2023/05/08 05:20:01;;;;;;;35.30;18.05;;;13.40;99.90;;;;;;5086343;28;20028;-65
2023/05/08 05:22:27;;;;;;;32.75;17.73;;;13.40;99.90;;;;;;5086674;28;20024;-65
2023/05/08 05:24:53;;;;;;;31.83;17.88;;;13.40;99.90;;;;;;5088333;28;20040;-67
2023/05/08 05:27:19;;;;;;;36.42;17.42;;;13.40;99.90;;;;;;5094378;28;20057;-66
2023/05/08 05:29:45;;;;;;;34.05;17.33;;;13.40;99.90;;;;;;5080599;28;20027;-65
2023/05/08 05:32:10;;;;;;;36.47;18.70;;;13.50;99.90;;;;;;5096609;28;20375;-70
2023/05/08 05:34:36;;;;;;;32.22;18.25;;;13.40;99.90;;;;;;5090757;28;20048;-66
2023/05/08 05:37:02;;;;;;;34.42;17.17;;;13.40;99.90;;;;;;5090402;28;20103;-66
2023/05/08 05:39:27;;;;;;;36.10;18.50;;;13.50;99.90;;;;;;5089603;28;20352;-66
2023/05/08 05:41:53;;;;;;;35.65;18.52;;;13.50;99.90;;;;;;5083714;28;20032;-65
2023/05/08 05:44:19;;;;;;;35.38;17.90;;;13.50;99.90;;;;;;5095674;28;20036;-65
2023/05/08 05:46:44;;;;;;;35.20;19.45;;;13.50;99.90;;;;;;5081927;28;20119;-66
2023/05/08 05:49:11;;;;;;;34.05;17.38;;;13.50;99.90;;;;;;5089127;28;20024;-68
2023/05/08 05:51:37;;;;;;;35.67;18.63;;;13.50;99.90;;;;;;5090022;28;20063;-67
2023/05/08 05:54:02;;;;;;;39.65;18.40;;;13.60;99.90;;;;;;5088461;28;20063;-66
2023/05/08 05:56:28;;;;;;;33.30;17.90;;;13.60;99.90;;;;;;5087653;28;20077;-65
2023/05/08 05:58:54;;;;;;;33.20;17.65;;;13.60;99.90;;;;;;5089411;28;20080;-68
2023/05/08 06:01:19;;;;;;;35.80;17.67;;;13.60;99.90;;;;;;5090190;28;20056;-66
2023/05/08 06:03:46;;;;;;;35.17;18.13;;;13.70;99.90;;;;;;5088877;28;20116;-67
2023/05/08 06:06:12;;;;;;;32.35;18.55;;;13.70;99.90;;;;;;5082909;28;20074;-69
2023/05/08 06:08:40;;;;;;;36.58;18.08;;;13.60;99.90;;;;;;5093239;28;20468;-66
2023/05/08 06:11:06;;;;;;;32.70;17.65;;;13.70;99.90;;;;;;5088786;28;20755;-67
2023/05/08 06:13:31;;;;;;;35.25;18.85;;;13.70;99.90;;;;;;5087459;28;20028;-66
2023/05/08 06:15:57;;;;;;;34.60;18.38;;;13.70;99.90;;;;;;5093252;28;20068;-65
2023/05/08 06:18:23;;;;;;;36.45;18.33;;;13.70;99.90;;;;;;5088758;28;20063;-68
2023/05/08 06:20:53;;;;;;;37.17;19.17;;;13.90;99.90;;;;;;5089626;28;20035;-67
2023/05/08 06:23:19;;;;;;;34.13;18.02;;;13.90;99.90;;;;;;5080428;28;20092;-67
2023/05/08 06:25:44;;;;;;;39.95;18.27;;;14.00;99.90;;;;;;5088641;28;20556;-66
2023/05/08 06:28:10;;;;;;;34.95;19.80;;;14.00;99.90;;;;;;5085582;28;20088;-66
2023/05/08 06:30:36;;;;;;;35.38;19.27;;;14.10;99.90;;;;;;5084506;28;20122;-66
2023/05/08 06:33:02;;;;;;;37.55;19.63;;;14.20;99.90;;;;;;5089402;28;20037;-66
2023/05/08 06:35:27;;;;;;;31.15;18.80;;;14.30;99.90;;;;;;5088999;28;20032;-66
2023/05/08 06:37:53;;;;;;;41.13;19.92;;;14.50;99.90;;;;;;5089572;28;20036;-66
2023/05/08 06:40:18;;;;;;;30.48;17.27;;;14.60;99.90;;;;;;5087880;28;20484;-67
2023/05/08 06:42:45;;;;;;;32.53;17.98;;;14.60;99.90;;;;;;5092391;28;20028;-66
2023/05/08 06:45:10;;;;;;;115.43;79.30;;;14.60;99.90;;;;;;5081438;28;20421;-66
2023/05/08 06:47:36;;;;;;;42.05;26.42;;;14.60;99.90;;;;;;5088706;28;20028;-67
2023/05/08 06:50:03;;;;;;;29.60;17.52;;;14.70;99.90;;;;;;5089496;28;20052;-67
2023/05/08 06:52:28;;;;;;;31.58;18.55;;;14.90;99.90;;;;;;5088712;28;20084;-65
2023/05/08 06:54:54;;;;;;;29.05;17.42;;;14.80;99.90;;;;;;5089092;28;20056;-66
2023/05/08 06:57:20;;;;;;;30.00;16.20;;;14.80;99.90;;;;;;5091369;28;20804;-66
2023/05/08 06:59:45;;;;;;;26.73;15.20;;;14.80;99.90;;;;;;5089550;28;20032;-66
2023/05/08 07:02:11;;;;;;;29.70;16.17;;;14.80;99.90;;;;;;5089179;28;20024;-67
2023/05/08 07:04:37;;;;;;;27.90;15.48;;;14.80;99.90;;;;;;5088534;28;20043;-66
2023/05/08 07:07:02;;;;;;;25.15;15.70;;;14.80;99.90;;;;;;5086905;28;20032;-66
2023/05/08 07:09:28;;;;;;;29.08;16.55;;;14.70;99.90;;;;;;5091383;28;20020;-66
2023/05/08 07:11:54;;;;;;;27.30;16.42;;;14.60;99.90;;;;;;5088633;28;20024;-67
2023/05/08 07:14:20;;;;;;;32.42;17.58;;;14.60;99.90;;;;;;5087844;28;20083;-67
2023/05/08 07:16:45;;;;;;;33.03;19.48;;;14.70;99.90;;;;;;5084311;28;20039;-67
2023/05/08 07:19:11;;;;;;;30.13;17.95;;;14.70;99.90;;;;;;5088796;28;20488;-66
2023/05/08 07:21:37;;;;;;;37.70;20.40;;;14.80;99.90;;;;;;5088117;28;20874;-68
2023/05/08 07:24:03;;;;;;;26.77;15.75;;;14.80;99.90;;;;;;5088173;28;20107;-66
2023/05/08 07:26:29;;;;;;;34.58;21.25;;;14.80;99.90;;;;;;5083294;28;20128;-66
2023/05/08 07:28:54;;;;;;;26.60;15.48;;;14.80;99.90;;;;;;5091805;28;20032;-66
2023/05/08 07:31:21;;;;;;;30.40;18.73;;;14.70;99.90;;;;;;5085796;28;20028;-66
2023/05/08 07:33:46;;;;;;;28.98;17.55;;;14.80;99.90;;;;;;5083544;28;20020;-66
2023/05/08 07:36:12;;;;;;;34.95;21.20;;;14.90;99.90;;;;;;5078586;28;20032;-67
2023/05/08 07:38:38;;;;;;;27.23;16.27;;;14.90;99.90;;;;;;5087803;28;20035;-66
2023/05/08 07:41:04;;;;;;;49.22;25.95;;;14.90;99.90;;;;;;5088606;28;20035;-66
2023/05/08 07:43:30;;;;;;;39.45;22.20;;;14.90;99.90;;;;;;5095032;28;20638;-65
2023/05/08 07:45:56;;;;;;;32.80;17.35;;;14.90;99.90;;;;;;5088563;28;20032;-65
2023/05/08 07:48:22;;;;;;;27.63;16.13;;;14.80;99.90;;;;;;5086831;28;20341;-66
2023/05/08 07:50:51;;;;;;;52.78;28.77;;;14.80;99.90;;;;;;5088557;28;20039;-65
2023/05/08 07:53:16;;;;;;;26.63;15.45;;;14.80;99.90;;;;;;5086308;28;20067;-69
2023/05/08 07:55:42;;;;;;;29.35;16.10;;;14.90;99.90;;;;;;5087205;28;20391;-66
2023/05/08 07:58:08;;;;;;;29.25;15.48;;;14.90;99.90;;;;;;5088296;28;20354;-65
2023/05/08 08:00:35;;;;;;;26.65;15.32;;;14.80;99.90;;;;;;5087310;28;20044;-65
2023/05/08 08:03:01;;;;;;;25.85;15.77;;;14.70;99.90;;;;;;5079977;28;20039;-68
2023/05/08 08:05:27;;;;;;;37.13;19.45;;;14.70;99.90;;;;;;5087446;28;20077;-67
2023/05/08 08:07:52;;;;;;;27.65;16.10;;;14.60;99.90;;;;;;5091354;28;20028;-66
2023/05/08 08:10:18;;;;;;;28.20;15.68;;;14.70;99.90;;;;;;5087992;28;20028;-69
2023/05/08 08:12:44;;;;;;;27.10;16.38;;;14.80;99.90;;;;;;5086979;28;20047;-67
2023/05/08 08:15:10;;;;;;;24.60;15.07;;;14.80;99.90;;;;;;5082612;28;20064;-67
2023/05/08 08:17:36;;;;;;;29.42;16.40;;;14.80;99.90;;;;;;5087571;28;20028;-67
2023/05/08 08:20:02;;;;;;;26.63;16.23;;;14.70;99.90;;;;;;5087884;28;20052;-67
2023/05/08 08:22:28;;;;;;;70.40;46.83;;;14.80;99.90;;;;;;5087114;28;20031;-66
2023/05/08 08:24:55;;;;;;;37.28;24.70;;;14.90;99.90;;;;;;5087619;28;20040;-65
2023/05/08 08:27:20;;;;;;;28.90;16.83;;;15.00;99.90;;;;;;5087413;28;20068;-68
2023/05/08 08:29:46;;;;;;;30.20;16.67;;;15.10;99.90;;;;;;5086587;28;20054;-65
2023/05/08 08:32:12;;;;;;;24.88;15.25;;;15.10;99.90;;;;;;5087658;28;20473;-66
2023/05/08 08:34:37;;;;;;;30.05;16.48;;;15.00;99.90;;;;;;5087178;28;20024;-67
2023/05/08 08:37:09;;;;;;;28.23;16.08;;;14.90;99.90;;;;;;5087623;28;20036;-65
2023/05/08 08:39:35;;;;;;;29.08;16.38;;;14.90;99.90;;;;;;5077131;28;20062;-65
2023/05/08 08:42:01;;;;;;;32.35;17.95;;;14.90;99.90;;;;;;5087750;28;20030;-65
2023/05/08 08:44:26;;;;;;;31.65;18.75;;;14.90;99.90;;;;;;5095824;28;20031;-67
2023/05/08 08:46:52;;;;;;;31.45;17.33;;;14.90;99.90;;;;;;5078115;28;20035;-66
2023/05/08 08:49:28;;;;;;;28.83;16.88;;;14.90;99.90;;;;;;5081924;28;20124;-65
2023/05/08 08:51:58;;;;;;;29.75;16.75;;;14.90;99.90;;;;;;5087882;28;20055;-65
2023/05/08 08:54:28;;;;;;;33.40;17.38;;;14.90;99.90;;;;;;5086108;28;20051;-70
2023/05/08 08:56:55;;;;;;;32.25;16.67;;;14.90;99.90;;;;;;5085799;28;20400;-68
2023/05/08 08:59:24;;;;;;;28.23;16.65;;;14.90;99.90;;;;;;5087623;28;20504;-68
2023/05/08 09:01:55;;;;;;;31.05;16.27;;;14.90;99.90;;;;;;5089162;28;20039;-66
2023/05/08 09:04:20;;;;;;;29.42;15.98;;;14.90;99.90;;;;;;5088784;28;20039;-69
2023/05/08 09:06:49;;;;;;;31.30;17.65;;;14.80;99.90;;;;;;5091107;28;20391;-65
2023/05/08 09:09:15;;;;;;;46.13;24.58;;;14.80;99.90;;;;;;5091147;28;20039;-66
2023/05/08 09:11:42;;;;;;;31.95;19.48;;;14.80;99.90;;;;;;5090643;28;20136;-67
2023/05/08 09:14:08;;;;;;;35.92;20.42;;;14.80;99.90;;;;;;5096625;28;20032;-66
2023/05/08 09:16:34;;;;;;;31.88;18.00;;;14.80;99.90;;;;;;5089719;28;20039;-65
2023/05/08 09:19:01;;;;;;;31.38;17.02;;;14.80;99.90;;;;;;5091508;28;20032;-66
2023/05/08 09:21:28;;;;;;;29.05;16.67;;;14.80;99.90;;;;;;5090343;28;20170;-65
2023/05/08 09:23:57;;;;;;;30.40;18.70;;;14.70;99.90;;;;;;5090882;28;20115;-66
2023/05/08 09:26:37;;;;;;;32.83;20.02;;;14.70;99.90;;;;;;5090401;28;20099;-69
2023/05/08 09:29:14;;;;;;;33.35;19.83;;;14.80;99.90;;;;;;5091098;28;20020;-65
2023/05/08 09:31:42;;;;;;;46.90;28.70;;;14.90;99.90;;;;;;5093063;28;20036;-67
2023/05/08 09:34:10;;;;;;;69.18;43.53;;;15.00;99.90;;;;;;5091115;28;20032;-65
2023/05/08 09:36:38;;;;;;;34.80;18.73;;;15.10;99.90;;;;;;5089972;28;20055;-65
2023/05/08 09:39:09;;;;;;;36.95;21.98;;;15.10;99.90;;;;;;5090434;28;20104;-67
2023/05/08 09:41:34;;;;;;;40.63;22.60;;;15.00;99.90;;;;;;5096282;28;20036;-65
2023/05/08 09:44:05;;;;;;;29.52;17.75;;;15.00;99.90;;;;;;5098442;28;20024;-66
2023/05/08 09:46:32;;;;;;;37.17;21.95;;;14.80;99.90;;;;;;5089912;28;20035;-65
2023/05/08 09:49:00;;;;;;;31.30;17.60;;;14.80;99.90;;;;;;5090765;28;20024;-65
2023/05/08 09:51:27;;;;;;;45.92;26.70;;;14.80;99.90;;;;;;5090190;28;20028;-71
2023/05/08 09:53:54;;;;;;;28.60;17.65;;;14.90;99.90;;;;;;5088359;28;20055;-65
2023/05/08 09:56:34;;;;;;;52.28;30.83;;;15.00;99.90;;;;;;5090044;28;20032;-67
2023/05/08 09:59:02;;;;;;;31.85;18.17;;;15.00;99.90;;;;;;5090555;28;20111;-66
2023/05/08 10:01:35;;;;;;;29.35;17.42;;;15.10;99.90;;;;;;5089714;28;20052;-67
2023/05/08 10:04:02;;;;;;;33.88;17.85;;;15.10;99.90;;;;;;5081274;28;20052;-67
2023/05/08 10:06:29;;;;;;;29.60;17.30;;;15.10;99.90;;;;;;5089627;28;20036;-67
2023/05/08 10:09:12;;;;;;;33.83;19.88;;;15.20;99.90;;;;;;5089917;28;20039;-67
2023/05/08 10:11:50;;;;;;;38.15;19.55;;;15.30;99.90;;;;;;5089313;28;20032;-67
2023/05/08 10:14:16;;;;;;;33.58;19.25;;;15.20;99.90;;;;;;5093167;28;20024;-65
2023/05/08 10:16:44;;;;;;;38.33;19.30;;;15.10;99.90;;;;;;5088483;28;20038;-66
2023/05/08 10:19:21;;;;;;;30.65;18.23;;;15.00;99.90;;;;;;5089528;28;20059;-66
2023/05/08 10:21:51;;;;;;;33.03;19.30;;;15.10;99.90;;;;;;5089206;28;20294;-65
2023/05/08 10:24:30;;;;;;;32.03;19.27;;;15.20;99.90;;;;;;5089453;28;20448;-66
2023/05/08 10:26:56;;;;;;;31.60;18.48;;;15.10;99.90;;;;;;5089711;28;20556;-67
2023/05/08 10:29:41;;;;;;;31.85;19.05;;;15.00;99.90;;;;;;5089958;28;20468;-66
2023/05/08 10:32:09;;;;;;;34.35;19.15;;;14.80;99.90;;;;;;5089770;28;20032;-66
2023/05/08 10:34:39;;;;;;;37.53;20.63;;;14.90;99.90;;;;;;5091672;28;20039;-66
2023/05/08 10:37:07;;;;;;;34.80;20.33;;;14.90;99.90;;;;;;5089539;28;20466;-66
2023/05/08 10:39:34;;;;;;;38.83;19.60;;;15.00;99.90;;;;;;5088482;28;20761;-66
2023/05/08 10:42:00;;;;;;;34.35;19.58;;;15.00;99.90;;;;;;5088919;28;20035;-70
2023/05/08 10:44:27;;;;;;;34.50;19.83;;;15.00;99.90;;;;;;5083454;28;20032;-68
2023/05/08 10:47:02;;;;;;;30.30;17.67;;;15.00;99.90;;;;;;5089587;28;20036;-66
2023/05/08 10:49:52;;;;;;;33.63;17.45;;;15.10;99.90;;;;;;5082291;28;20513;-68
2023/05/08 10:52:38;;;;;;;32.45;17.63;;;15.20;99.90;;;;;;5089344;28;20115;-65
2023/05/08 10:55:28;;;;;;;30.63;17.48;;;15.30;99.90;;;;;;5090174;28;20448;-68
2023/05/08 10:58:05;;;;;;;28.52;16.77;;;15.40;99.90;;;;;;5089417;28;20036;-67
2023/05/08 11:00:53;;;;;;;29.70;16.35;;;15.60;99.90;;;;;;5080768;28;20035;-68
2023/05/08 11:03:20;;;;;;;29.02;16.77;;;15.80;99.90;;;;;;5089294;28;20524;-66
2023/05/08 11:05:47;;;;;;;25.00;15.35;;;15.90;99.90;;;;;;5088345;28;20031;-67
2023/05/08 11:08:27;;;;;;;26.63;15.27;;;15.90;99.90;;;;;;5094019;28;20077;-65
2023/05/08 11:10:59;;;;;;;27.30;15.55;;;16.00;99.90;;;;;;5096585;28;20032;-65
2023/05/08 11:13:39;;;;;;;34.83;20.50;;;16.10;99.90;;;;;;5093440;28;20440;-66
2023/05/08 11:16:05;;;;;;;26.88;15.48;;;16.20;99.90;;;;;;5077865;28;20079;-66
2023/05/08 11:18:31;;;;;;;33.35;20.55;;;16.20;99.90;;;;;;5088318;28;20062;-68
2023/05/08 11:21:07;;;;;;;31.30;19.60;;;16.30;99.90;;;;;;5088837;28;20528;-66
2023/05/08 11:23:35;;;;;;;23.85;15.05;;;16.20;99.90;;;;;;5088297;28;20492;-66
2023/05/08 11:26:02;;;;;;;26.40;14.23;;;16.20;99.90;;;;;;5088971;28;20040;-65
2023/05/08 11:28:31;;;;;;;25.33;14.75;;;16.00;99.90;;;;;;5088560;28;20055;-68
2023/05/08 11:31:03;;;;;;;25.38;15.90;;;16.10;99.90;;;;;;5091283;28;20456;-66
2023/05/08 11:33:30;;;;;;;27.08;15.20;;;16.20;99.90;;;;;;5094693;28;20526;-68
2023/05/08 11:36:11;;;;;;;26.70;14.20;;;16.20;99.90;;;;;;5086731;28;20089;-66
2023/05/08 11:38:38;;;;;;;24.83;14.23;;;16.00;99.90;;;;;;5087757;28;20056;-66
2023/05/08 11:41:10;;;;;;;25.25;14.68;;;15.80;99.90;;;;;;5078846;28;20103;-66
2023/05/08 11:44:01;;;;;;;28.02;16.73;;;15.90;99.90;;;;;;5094153;28;20023;-66
2023/05/08 11:46:38;;;;;;;;;;;16.00;99.90;;;;;;5090556;28;20024;-67
2023/05/08 11:49:04;;;;;;;26.58;14.88;;;15.90;99.90;;;;;;5092064;28;20412;-67
2023/05/08 11:51:31;;;;;;;27.63;15.88;;;16.00;99.90;;;;;;5075666;28;20060;-69
2023/05/08 11:53:59;;;;;;;27.65;15.80;;;16.00;99.90;;;;;;5087907;28;20040;-66
2023/05/08 11:56:25;;;;;;;26.50;15.23;;;16.10;99.90;;;;;;5088215;28;20075;-67
2023/05/08 11:59:05;;;;;;;27.25;14.77;;;16.00;99.90;;;;;;5087389;28;20040;-66
2023/05/08 12:01:31;;;;;;;24.38;14.13;;;16.00;99.90;;;;;;5084352;28;20027;-68
2023/05/08 12:04:09;;;;;;;25.45;15.00;;;15.90;99.90;;;;;;5086330;28;20027;-66
2023/05/08 12:06:37;;;;;;;26.15;15.77;;;16.00;99.90;;;;;;5092196;28;20035;-69
2023/05/08 12:09:09;;;;;;;26.42;15.02;;;15.90;99.90;;;;;;5093223;28;20024;-67
2023/05/08 12:11:34;;;;;;;26.98;15.55;;;15.80;99.90;;;;;;5077518;28;20123;-68
2023/05/08 12:14:00;;;;;;;22.70;14.18;;;15.70;99.90;;;;;;5088104;28;20161;-66
2023/05/08 12:16:26;;;;;;;24.38;13.95;;;15.80;99.90;;;;;;5087453;28;20054;-66
2023/05/08 12:18:52;;;;;;;22.58;13.35;;;15.80;99.90;;;;;;5087462;28;20035;-67
2023/05/08 12:21:18;;;;;;;22.27;13.73;;;15.90;99.90;;;;;;5088384;28;20354;-67
2023/05/08 12:23:44;;;;;;;26.38;13.35;;;15.80;99.90;;;;;;5087655;28;20046;-66
2023/05/08 12:26:11;;;;;;;24.10;13.38;;;15.70;99.90;;;;;;5087772;28;20039;-66
2023/05/08 12:28:37;;;;;;;22.33;13.05;;;15.80;99.90;;;;;;5087426;28;20347;-66
2023/05/08 12:31:03;;;;;;;22.98;13.88;;;15.90;99.90;;;;;;5087979;28;20093;-67
2023/05/08 12:33:29;;;;;;;25.40;13.57;;;15.90;99.90;;;;;;5088137;28;20643;-67
2023/05/08 12:35:55;;;;;;;21.83;13.45;;;15.80;99.90;;;;;;5086196;28;20160;-67
2023/05/08 12:38:25;;;;;;;24.27;13.90;;;15.80;99.90;;;;;;5094086;28;20426;-67